Aviation Digital Data Service (ADDS)

Output produced by METARs form (1504 UTC 19 January 2017)
found at http://aviationweather.gov/adds/metars/
 
KGFL 191503Z 1915/2012 16003KT 3SM BR OVC003 
     TEMPO 1915/1916 1/2SM FG OVC035 
     FM191800 22005KT P6SM BKN025 
     FM192200 36005KT P6SM BKN035